createdAt,value
2017-11-09T00:02:15.797Z,7.10
2017-11-09T00:04:48.166Z,7.20
2017-11-09T00:07:14.505Z,7.20
2017-11-09T00:09:40.901Z,7.20
2017-11-09T00:12:08.122Z,7.10
2017-11-09T00:14:34.470Z,7.10
2017-11-09T00:17:00.807Z,7.20
2017-11-09T00:19:27.146Z,7.10
2017-11-09T00:21:53.521Z,7.10
2017-11-09T00:24:19.943Z,7.20
2017-11-09T00:26:46.303Z,7.10
2017-11-09T00:29:12.660Z,7.10
2017-11-09T00:31:39.009Z,7.10
2017-11-09T00:34:05.386Z,7.10
2017-11-09T00:36:32.454Z,7.10
2017-11-09T00:38:58.790Z,7.10
2017-11-09T00:41:25.158Z,7.10
2017-11-09T00:43:51.528Z,7.10
2017-11-09T00:46:18.694Z,7.10
2017-11-09T00:48:45.053Z,7.10
2017-11-09T00:51:11.401Z,7.10
2017-11-09T00:53:38.482Z,7.10
2017-11-09T00:56:05.039Z,7.10
2017-11-09T00:58:32.110Z,7.10
2017-11-09T01:00:58.514Z,7.10
2017-11-09T01:03:25.820Z,7.10
2017-11-09T01:05:52.161Z,7.10
2017-11-09T01:08:18.521Z,7.10
2017-11-09T01:10:44.870Z,7.10
2017-11-09T01:16:03.213Z,7.10
2017-11-09T01:18:30.373Z,7.10
2017-11-09T01:20:56.853Z,7.10
2017-11-09T01:23:23.298Z,7.10
2017-11-09T01:25:49.707Z,7.10
2017-11-09T01:28:16.161Z,7.20
2017-11-09T01:30:42.594Z,7.10
2017-11-09T01:33:09.788Z,7.10
2017-11-09T01:35:36.241Z,7.10
2017-11-09T01:38:02.761Z,7.10
2017-11-09T01:40:29.960Z,7.10
2017-11-09T01:42:56.384Z,7.10
2017-11-09T01:45:23.018Z,7.10
2017-11-09T01:47:49.441Z,7.10
2017-11-09T01:50:16.656Z,7.00
2017-11-09T01:52:43.064Z,7.00
2017-11-09T01:55:09.582Z,7.10
2017-11-09T01:57:36.764Z,7.00
2017-11-09T02:00:03.961Z,7.00
2017-11-09T02:02:30.397Z,7.00
2017-11-09T02:04:56.888Z,7.00
2017-11-09T02:07:23.447Z,7.00
2017-11-09T02:09:49.917Z,7.00
2017-11-09T02:12:16.381Z,7.00
2017-11-09T02:14:42.782Z,7.00
2017-11-09T02:17:09.347Z,7.00
2017-11-09T02:19:35.814Z,7.00
2017-11-09T02:22:02.336Z,7.00
2017-11-09T02:24:28.939Z,7.00
2017-11-09T02:26:55.566Z,7.10
2017-11-09T02:29:21.975Z,7.10
2017-11-09T02:31:49.254Z,7.10
2017-11-09T02:34:16.489Z,7.10
2017-11-09T02:36:42.973Z,7.00
2017-11-09T02:39:09.611Z,7.10
2017-11-09T02:41:36.088Z,7.10
2017-11-09T02:44:02.633Z,7.10
2017-11-09T02:46:29.089Z,7.10
2017-11-09T02:48:55.542Z,7.10
2017-11-09T02:51:21.979Z,7.10
2017-11-09T02:53:49.228Z,7.10
2017-11-09T02:56:16.482Z,7.10
2017-11-09T02:58:42.961Z,7.10
2017-11-09T03:01:09.447Z,7.10
2017-11-09T03:03:36.720Z,7.10
2017-11-09T03:06:03.188Z,7.10
2017-11-09T03:08:29.697Z,7.10
2017-11-09T03:10:56.149Z,7.10
2017-11-09T03:13:22.577Z,7.10
2017-11-09T03:15:49.798Z,7.10
2017-11-09T03:18:17.717Z,7.00
2017-11-09T03:20:44.190Z,7.00
2017-11-09T03:23:10.648Z,7.10
2017-11-09T03:25:37.876Z,7.10
2017-11-09T03:28:04.326Z,7.10
2017-11-09T03:30:30.770Z,7.10
2017-11-09T03:32:57.239Z,7.10
2017-11-09T03:35:23.681Z,7.10
2017-11-09T03:37:50.098Z,7.10
2017-11-09T03:40:16.574Z,7.10
2017-11-09T03:42:43.029Z,7.10
2017-11-09T03:45:09.500Z,7.10
2017-11-09T03:47:36.724Z,7.00
2017-11-09T03:50:03.170Z,7.00
2017-11-09T03:52:29.589Z,7.00
2017-11-09T03:54:56.025Z,7.00
2017-11-09T03:57:22.475Z,7.10
2017-11-09T03:59:49.770Z,7.00
2017-11-09T04:02:16.353Z,7.00
2017-11-09T04:04:42.852Z,7.00
2017-11-09T04:07:10.064Z,7.10
2017-11-09T04:09:36.527Z,7.00
2017-11-09T04:12:02.986Z,7.10
2017-11-09T04:14:29.428Z,7.10
2017-11-09T04:16:55.836Z,7.10
2017-11-09T04:19:22.984Z,7.10
2017-11-09T04:21:49.468Z,7.00
2017-11-09T04:24:15.934Z,7.10
2017-11-09T04:26:42.351Z,7.10
2017-11-09T04:29:08.760Z,7.10
2017-11-09T04:31:35.279Z,7.10
2017-11-09T04:34:03.161Z,7.00
2017-11-09T04:36:31.113Z,7.00
2017-11-09T04:38:57.548Z,7.10
2017-11-09T04:41:23.959Z,7.10
2017-11-09T04:43:51.117Z,7.10
2017-11-09T04:46:17.515Z,7.00
2017-11-09T04:48:44.806Z,7.30
2017-11-09T04:51:11.320Z,7.00
2017-11-09T04:53:37.789Z,7.10
2017-11-09T04:56:04.978Z,7.00
2017-11-09T04:58:32.163Z,7.00
2017-11-09T05:00:58.671Z,7.00
2017-11-09T05:03:25.246Z,7.00
2017-11-09T05:05:51.728Z,7.00
2017-11-09T05:08:18.993Z,7.00
2017-11-09T05:10:45.479Z,7.00
2017-11-09T05:13:11.985Z,7.00
2017-11-09T05:15:39.941Z,7.00
2017-11-09T05:18:06.403Z,7.00
2017-11-09T05:20:32.890Z,7.00
2017-11-09T05:22:59.402Z,7.00
2017-11-09T05:25:26.631Z,7.00
2017-11-09T05:27:53.091Z,7.00
2017-11-09T05:30:19.585Z,7.00
2017-11-09T05:32:46.846Z,7.00
2017-11-09T05:35:13.363Z,7.00
2017-11-09T05:37:39.816Z,7.00
2017-11-09T05:40:06.778Z,7.00
2017-11-09T05:42:33.371Z,7.00
2017-11-09T05:45:00.520Z,7.00
2017-11-09T05:47:27.726Z,7.00
2017-11-09T05:49:54.968Z,7.10
2017-11-09T05:52:21.406Z,7.00
2017-11-09T05:54:48.621Z,7.10
2017-11-09T05:57:15.096Z,7.00
2017-11-09T05:59:41.575Z,7.10
2017-11-09T06:02:08.065Z,7.00
2017-11-09T06:04:34.537Z,7.10
2017-11-09T06:07:01.867Z,7.00
2017-11-09T06:09:28.423Z,7.00
2017-11-09T06:11:56.349Z,7.10
2017-11-09T06:14:23.200Z,7.00
2017-11-09T06:16:50.894Z,7.10
2017-11-09T06:19:17.546Z,7.00
2017-11-09T06:21:44.934Z,7.00
2017-11-09T06:24:12.692Z,7.00
2017-11-09T06:26:41.333Z,7.00
2017-11-09T06:29:09.928Z,7.00
2017-11-09T06:31:40.985Z,7.00
2017-11-09T06:34:09.769Z,7.00
2017-11-09T06:36:37.706Z,7.00
2017-11-09T06:39:04.533Z,7.00
2017-11-09T06:41:31.141Z,7.50
2017-11-09T06:43:57.577Z,6.90
2017-11-09T06:46:24.841Z,6.90
2017-11-09T06:48:52.565Z,6.90
2017-11-09T06:51:19.848Z,7.00
2017-11-09T06:53:53.024Z,6.90
2017-11-09T06:56:20.554Z,6.90
2017-11-09T06:58:47.184Z,6.90
2017-11-09T07:01:13.770Z,6.10
2017-11-09T07:03:40.475Z,6.90
2017-11-09T07:06:07.365Z,6.50
2017-11-09T07:08:33.912Z,7.00
2017-11-09T07:11:00.402Z,6.60
2017-11-09T07:13:27.027Z,6.90
2017-11-09T07:15:54.326Z,7.00
2017-11-09T07:18:21.697Z,7.00
2017-11-09T07:20:50.199Z,6.90
2017-11-09T07:23:16.690Z,7.00
2017-11-09T07:25:43.362Z,7.00
2017-11-09T07:28:10.826Z,7.00
2017-11-09T07:30:37.684Z,7.00
2017-11-09T07:33:05.474Z,7.00
2017-11-09T07:35:32.099Z,7.10
2017-11-09T07:37:58.764Z,7.10
2017-11-09T07:40:26.038Z,7.10
2017-11-09T07:42:52.575Z,7.10
2017-11-09T07:45:19.868Z,7.20
2017-11-09T07:47:48.042Z,7.20
2017-11-09T07:50:15.414Z,7.30
2017-11-09T07:52:43.012Z,7.20
2017-11-09T07:55:09.608Z,7.60
2017-11-09T07:57:36.170Z,7.30
2017-11-09T08:00:04.804Z,7.40
2017-11-09T08:02:32.330Z,7.10
2017-11-09T08:04:58.860Z,7.40
2017-11-09T08:07:25.486Z,7.40
2017-11-09T08:09:52.042Z,7.50
2017-11-09T08:12:19.192Z,7.60
2017-11-09T08:14:47.376Z,7.60
2017-11-09T08:17:14.546Z,7.60
2017-11-09T08:19:41.062Z,7.70
2017-11-09T08:22:07.791Z,7.70
2017-11-09T08:24:37.164Z,7.80
2017-11-09T08:27:06.148Z,7.80
2017-11-09T08:29:35.797Z,7.90
2017-11-09T08:32:04.705Z,8.00
2017-11-09T08:34:35.585Z,8.00
2017-11-09T08:37:06.602Z,8.10
2017-11-09T08:39:36.093Z,8.10
2017-11-09T08:42:06.507Z,8.10
2017-11-09T08:44:34.475Z,8.20
2017-11-09T08:47:02.543Z,8.20
2017-11-09T08:49:29.177Z,8.20
2017-11-09T08:51:55.896Z,8.20
2017-11-09T08:54:23.110Z,8.30
2017-11-09T08:56:51.035Z,8.30
2017-11-09T08:59:17.705Z,8.30
2017-11-09T09:01:44.392Z,8.30
2017-11-09T09:04:10.888Z,8.30
2017-11-09T09:06:38.243Z,8.40
2017-11-09T09:09:07.441Z,8.50
2017-11-09T09:11:34.065Z,8.40
2017-11-09T09:14:00.569Z,8.60
2017-11-09T09:16:29.716Z,8.80
2017-11-09T09:18:56.211Z,8.90
2017-11-09T09:21:28.608Z,8.90
2017-11-09T09:24:01.261Z,8.90
2017-11-09T09:29:38.773Z,8.60
2017-11-09T09:32:06.070Z,8.60
2017-11-09T09:34:37.073Z,8.60
2017-11-09T09:37:06.744Z,8.50
2017-11-09T09:39:36.956Z,8.50
2017-11-09T09:42:03.551Z,8.50
2017-11-09T09:44:30.037Z,8.60
2017-11-09T09:46:56.721Z,8.70
2017-11-09T09:49:25.647Z,8.80
2017-11-09T09:51:53.550Z,8.80
2017-11-09T09:54:20.084Z,8.90
2017-11-09T09:56:47.422Z,8.80
2017-11-09T09:59:15.632Z,8.90
2017-11-09T10:01:42.249Z,8.90
2017-11-09T10:04:10.002Z,8.90
2017-11-09T10:06:36.547Z,8.90
2017-11-09T10:09:03.411Z,9.00
2017-11-09T10:11:30.028Z,9.10
2017-11-09T10:13:58.978Z,9.20
2017-11-09T10:16:26.555Z,9.10
2017-11-09T10:18:53.117Z,9.10
2017-11-09T10:21:19.684Z,9.10
2017-11-09T10:23:47.741Z,9.40
2017-11-09T10:26:15.259Z,9.40
2017-11-09T10:28:42.648Z,9.40
2017-11-09T10:31:11.157Z,9.30
2017-11-09T10:33:37.734Z,9.20
2017-11-09T10:36:06.806Z,9.10
2017-11-09T10:38:33.361Z,9.00
2017-11-09T10:41:00.737Z,9.00
2017-11-09T10:43:29.957Z,9.20
2017-11-09T10:45:58.225Z,9.20
2017-11-09T10:48:24.774Z,9.30
2017-11-09T10:50:51.980Z,9.30
2017-11-09T10:53:20.742Z,9.10
2017-11-09T10:55:49.453Z,9.10
2017-11-09T10:58:17.190Z,9.20
2017-11-09T11:00:48.129Z,9.40
2017-11-09T11:03:16.688Z,9.10
2017-11-09T11:05:44.428Z,9.40
2017-11-09T11:08:12.917Z,9.30
2017-11-09T11:10:47.658Z,9.40
2017-11-09T11:13:16.303Z,9.00
2017-11-09T11:15:44.620Z,9.50
2017-11-09T11:18:13.860Z,9.70
2017-11-09T11:20:43.001Z,9.90
2017-11-09T11:23:13.039Z,10.20
2017-11-09T11:25:40.344Z,10.20
2017-11-09T11:28:06.907Z,10.10
2017-11-09T11:30:33.527Z,10.00
2017-11-09T11:33:00.784Z,10.00
2017-11-09T11:35:30.192Z,10.00
2017-11-09T11:37:58.075Z,9.80
2017-11-09T11:40:24.635Z,9.40
2017-11-09T11:42:53.831Z,9.80
2017-11-09T11:45:21.992Z,9.80
2017-11-09T11:47:48.813Z,9.90
2017-11-09T11:50:17.365Z,10.10
2017-11-09T11:52:44.663Z,10.00
2017-11-09T11:55:11.321Z,10.00
2017-11-09T11:57:37.862Z,10.20
2017-11-09T12:00:04.588Z,10.20
2017-11-09T12:02:32.948Z,10.40
2017-11-09T12:05:00.432Z,10.70
2017-11-09T12:07:27.971Z,10.90
2017-11-09T12:09:55.344Z,10.80
2017-11-09T12:12:23.733Z,11.00
2017-11-09T12:14:54.277Z,10.70
2017-11-09T12:17:21.685Z,10.50
2017-11-09T12:19:48.940Z,10.10
2017-11-09T12:22:15.561Z,10.00
2017-11-09T12:24:43.476Z,10.00
2017-11-09T12:27:10.002Z,9.90
2017-11-09T12:29:38.409Z,9.70
2017-11-09T12:32:07.588Z,9.70
2017-11-09T12:34:35.081Z,9.20
2017-11-09T12:37:03.340Z,9.60
2017-11-09T12:39:32.950Z,9.70
2017-11-09T12:42:00.514Z,9.70
2017-11-09T12:44:27.057Z,9.80
2017-11-09T12:46:55.215Z,9.70
2017-11-09T12:49:21.908Z,9.70
2017-11-09T12:51:49.247Z,9.80
2017-11-09T12:54:16.851Z,10.00
2017-11-09T12:56:43.380Z,9.70
2017-11-09T12:59:09.947Z,9.70
2017-11-09T13:01:36.485Z,9.60
2017-11-09T13:04:03.882Z,9.50
2017-11-09T13:06:30.411Z,9.40
2017-11-09T13:08:58.116Z,9.30
2017-11-09T13:11:25.536Z,9.20
2017-11-09T13:13:52.600Z,9.20
2017-11-09T13:16:19.278Z,9.60
2017-11-09T13:18:46.807Z,9.60
2017-11-09T13:21:13.296Z,9.70
2017-11-09T13:23:40.711Z,9.40
2017-11-09T13:26:07.443Z,9.80
2017-11-09T13:28:34.480Z,9.80
2017-11-09T13:31:01.076Z,9.70
2017-11-09T13:33:28.899Z,9.60
2017-11-09T13:35:57.317Z,9.60
2017-11-09T13:38:25.308Z,9.30
2017-11-09T13:40:51.864Z,9.40
2017-11-09T13:43:21.216Z,9.50
2017-11-09T13:45:48.998Z,9.70
2017-11-09T13:48:15.516Z,9.90
2017-11-09T13:50:42.094Z,9.90
2017-11-09T13:53:08.786Z,9.90
2017-11-09T13:55:36.033Z,9.60
2017-11-09T13:58:02.614Z,9.60
2017-11-09T14:00:30.275Z,9.30
2017-11-09T14:03:01.837Z,9.00
2017-11-09T14:05:29.459Z,8.90
2017-11-09T14:07:59.417Z,8.90
2017-11-09T14:10:33.860Z,8.90
2017-11-09T14:13:05.011Z,9.00
2017-11-09T14:15:35.790Z,8.90
2017-11-09T14:18:03.102Z,9.00
2017-11-09T14:20:31.367Z,9.00
2017-11-09T14:22:58.675Z,9.30
2017-11-09T14:25:26.428Z,9.20
2017-11-09T14:27:53.057Z,9.40
2017-11-09T14:30:20.705Z,9.50
2017-11-09T14:32:47.884Z,9.50
2017-11-09T14:35:14.356Z,9.50
2017-11-09T14:37:43.751Z,9.20
2017-11-09T14:40:11.850Z,9.30
2017-11-09T14:42:39.074Z,9.20
2017-11-09T14:45:06.344Z,9.10
2017-11-09T14:47:33.088Z,9.10
2017-11-09T14:50:01.114Z,9.00
2017-11-09T14:52:27.703Z,9.00
2017-11-09T14:54:54.240Z,8.80
2017-11-09T14:57:20.777Z,8.40
2017-11-09T14:59:49.022Z,8.70
2017-11-09T15:02:15.493Z,8.60
2017-11-09T15:04:42.610Z,8.60
2017-11-09T15:07:09.230Z,8.50
2017-11-09T15:09:35.788Z,8.40
2017-11-09T15:12:03.563Z,8.20
2017-11-09T15:14:30.901Z,8.00
2017-11-09T15:16:57.465Z,8.00
2017-11-09T15:19:24.193Z,8.00
2017-11-09T15:21:51.004Z,8.00
2017-11-09T15:24:21.325Z,7.70
2017-11-09T15:26:50.268Z,7.60
2017-11-09T15:29:16.868Z,7.60
2017-11-09T15:31:47.058Z,7.50
2017-11-09T15:34:13.614Z,8.20
2017-11-09T15:36:41.197Z,7.40
2017-11-09T15:39:09.057Z,7.30
2017-11-09T15:41:38.141Z,7.10
2017-11-09T15:44:05.708Z,7.10
2017-11-09T15:46:32.946Z,7.10
2017-11-09T15:49:00.419Z,7.00
2017-11-09T15:51:27.018Z,7.00
2017-11-09T15:53:54.148Z,6.80
2017-11-09T15:56:22.077Z,6.80
2017-11-09T15:58:49.864Z,6.70
2017-11-09T16:01:17.265Z,6.70
2017-11-09T16:03:44.630Z,6.70
2017-11-09T16:06:16.477Z,6.70
2017-11-09T16:08:43.112Z,6.70
2017-11-09T16:11:09.846Z,6.70
2017-11-09T16:13:37.555Z,6.60
2017-11-09T16:16:04.147Z,6.60
2017-11-09T16:18:33.996Z,6.70
2017-11-09T16:21:01.720Z,6.70
2017-11-09T16:23:28.213Z,6.70
2017-11-09T16:25:55.443Z,6.70
2017-11-09T16:28:23.432Z,6.80
2017-11-09T16:30:49.942Z,6.70
2017-11-09T16:33:16.385Z,6.80
2017-11-09T16:35:42.827Z,6.80
2017-11-09T16:38:09.388Z,6.80
2017-11-09T16:40:35.850Z,6.80
2017-11-09T16:43:02.278Z,6.70
2017-11-09T16:45:28.724Z,6.70
2017-11-09T16:47:55.247Z,6.60
2017-11-09T16:50:22.430Z,6.60
2017-11-09T16:52:54.895Z,6.60
2017-11-09T16:55:21.414Z,6.60
2017-11-09T16:57:48.629Z,6.60
2017-11-09T17:00:15.069Z,6.50
2017-11-09T17:02:41.548Z,6.60
2017-11-09T17:05:07.976Z,6.70
2017-11-09T17:07:36.065Z,6.70
2017-11-09T17:10:02.547Z,6.70
2017-11-09T17:12:29.005Z,6.70
2017-11-09T17:15:00.535Z,6.70
2017-11-09T17:17:26.972Z,6.70
2017-11-09T17:19:54.224Z,6.70
2017-11-09T17:22:20.662Z,6.60
2017-11-09T17:24:47.117Z,6.80
2017-11-09T17:27:13.524Z,6.80
2017-11-09T17:29:40.033Z,6.80
2017-11-09T17:32:07.257Z,6.90
2017-11-09T17:34:33.691Z,6.90
2017-11-09T17:37:00.135Z,7.00
2017-11-09T17:39:26.598Z,7.10
2017-11-09T17:41:56.880Z,7.10
2017-11-09T17:44:24.411Z,7.10
2017-11-09T17:46:50.957Z,7.10
2017-11-09T17:49:17.385Z,7.20
2017-11-09T17:51:43.989Z,7.20
2017-11-09T17:54:10.445Z,7.20
2017-11-09T17:56:36.986Z,7.00
2017-11-09T17:59:08.072Z,7.30
2017-11-09T18:01:34.528Z,7.20
2017-11-09T18:04:00.980Z,7.40
2017-11-09T18:06:27.616Z,7.60
2017-11-09T18:08:54.144Z,7.40
2017-11-09T18:11:20.603Z,7.40
2017-11-09T18:13:47.107Z,7.40
2017-11-09T18:16:13.610Z,7.40
2017-11-09T18:18:40.182Z,7.50
2017-11-09T18:21:07.794Z,7.50
2017-11-09T18:23:34.272Z,7.40
2017-11-09T18:26:02.224Z,7.40
2017-11-09T18:28:28.718Z,7.40
2017-11-09T18:30:55.115Z,7.50
2017-11-09T18:33:21.549Z,7.50
2017-11-09T18:35:48.081Z,7.50
2017-11-09T18:38:15.238Z,7.60
2017-11-09T18:40:42.408Z,7.60
2017-11-09T18:43:09.628Z,7.60
2017-11-09T18:45:36.097Z,7.50
2017-11-09T18:48:02.532Z,7.60
2017-11-09T18:50:29.088Z,7.50
2017-11-09T18:52:55.662Z,7.50
2017-11-09T18:55:22.820Z,7.50
2017-11-09T18:57:50.064Z,7.50
2017-11-09T19:00:17.317Z,7.60
2017-11-09T19:02:43.870Z,7.50
2017-11-09T19:05:11.153Z,7.60
2017-11-09T19:07:38.349Z,7.60
2017-11-09T19:10:04.811Z,7.60
2017-11-09T19:12:31.493Z,7.60
2017-11-09T19:14:57.913Z,7.60
2017-11-09T19:17:24.375Z,7.60
2017-11-09T19:19:51.603Z,7.60
2017-11-09T19:22:18.063Z,7.60
2017-11-09T19:24:44.595Z,7.60
2017-11-09T19:27:11.067Z,7.60
2017-11-09T19:29:38.572Z,7.40
2017-11-09T19:32:05.105Z,7.30
2017-11-09T19:34:31.544Z,7.30
2017-11-09T19:36:57.996Z,7.20
2017-11-09T19:39:24.450Z,7.10
2017-11-09T19:41:51.615Z,7.00
2017-11-09T19:44:18.908Z,6.90
2017-11-09T19:46:45.353Z,6.90
2017-11-09T19:49:11.839Z,6.90
2017-11-09T19:51:38.324Z,6.90
2017-11-09T19:54:05.514Z,7.00
2017-11-09T19:56:32.030Z,6.90
2017-11-09T19:58:59.233Z,7.00
2017-11-09T20:01:25.686Z,6.90
2017-11-09T20:03:52.170Z,6.90
2017-11-09T20:06:19.436Z,6.90
2017-11-09T20:08:45.892Z,6.90
2017-11-09T20:11:12.436Z,6.90
2017-11-09T20:13:39.618Z,6.90
2017-11-09T20:16:06.117Z,6.90
2017-11-09T20:18:33.344Z,7.00
2017-11-09T20:20:59.772Z,7.00
2017-11-09T20:23:26.263Z,7.00
2017-11-09T20:25:52.716Z,6.90
2017-11-09T20:28:19.164Z,7.00
2017-11-09T20:30:45.633Z,7.00
2017-11-09T20:33:15.076Z,7.00
2017-11-09T20:35:41.561Z,6.80
2017-11-09T20:38:08.104Z,7.00
2017-11-09T20:40:34.586Z,7.00
2017-11-09T20:43:01.081Z,7.10
2017-11-09T20:45:27.633Z,7.10
2017-11-09T20:47:54.090Z,7.00
2017-11-09T20:50:21.399Z,7.10
2017-11-09T20:52:48.630Z,7.10
2017-11-09T20:55:15.152Z,7.10
2017-11-09T20:57:41.704Z,7.10
2017-11-09T21:00:08.216Z,7.10
2017-11-09T21:02:35.415Z,7.10
2017-11-09T21:05:02.002Z,7.10
2017-11-09T21:07:28.546Z,7.20
2017-11-09T21:09:55.028Z,7.20
2017-11-09T21:12:21.452Z,7.20
2017-11-09T21:14:47.967Z,7.20
2017-11-09T21:17:14.432Z,7.20
2017-11-09T21:19:40.955Z,7.30
2017-11-09T21:22:07.448Z,7.30
2017-11-09T21:24:33.947Z,7.30
2017-11-09T21:27:00.371Z,7.40
2017-11-09T21:29:27.198Z,7.40
2017-11-09T21:31:53.769Z,7.50
2017-11-09T21:34:20.228Z,7.50
2017-11-09T21:36:46.673Z,7.50
2017-11-09T21:39:13.095Z,7.40
2017-11-09T21:41:39.578Z,7.40
2017-11-09T21:44:06.080Z,7.40
2017-11-09T21:46:32.498Z,7.40
2017-11-09T21:48:59.050Z,7.50
2017-11-09T21:51:25.512Z,7.50
2017-11-09T21:53:52.020Z,7.40
2017-11-09T21:56:18.473Z,7.40
2017-11-09T21:58:44.962Z,7.40
2017-11-09T22:01:11.417Z,7.30
2017-11-09T22:03:37.914Z,7.30
2017-11-09T22:06:04.383Z,7.40
2017-11-09T22:08:30.811Z,7.40
2017-11-09T22:10:57.305Z,7.30
2017-11-09T22:13:23.758Z,7.30
2017-11-09T22:15:50.204Z,7.30
2017-11-09T22:18:17.487Z,7.30
2017-11-09T22:20:44.006Z,7.30
2017-11-09T22:23:10.484Z,7.30
2017-11-09T22:25:36.961Z,7.30
2017-11-09T22:28:04.143Z,7.30
2017-11-09T22:30:30.567Z,7.30
2017-11-09T22:32:57.838Z,7.30
2017-11-09T22:35:24.329Z,7.30
2017-11-09T22:37:50.765Z,7.30
2017-11-09T22:40:17.212Z,7.20
2017-11-09T22:42:43.642Z,7.10
2017-11-09T22:45:10.175Z,7.10
2017-11-09T22:47:36.925Z,7.00
2017-11-09T22:50:03.409Z,7.00
2017-11-09T22:52:29.893Z,7.00
2017-11-09T22:54:56.369Z,7.00
2017-11-09T22:57:22.812Z,7.00
2017-11-09T22:59:49.272Z,7.00
2017-11-09T23:02:15.720Z,7.00
2017-11-09T23:04:42.308Z,6.90
2017-11-09T23:07:08.696Z,6.90
2017-11-09T23:09:35.854Z,6.90
2017-11-09T23:12:02.328Z,6.90
2017-11-09T23:14:28.849Z,6.90
2017-11-09T23:16:55.981Z,6.90
2017-11-09T23:19:22.368Z,6.90
2017-11-09T23:21:48.842Z,7.00
2017-11-09T23:24:15.256Z,7.00
2017-11-09T23:26:41.660Z,7.00
2017-11-09T23:29:08.040Z,7.00
2017-11-09T23:31:34.491Z,7.00
2017-11-09T23:34:00.897Z,7.00
2017-11-09T23:36:27.342Z,7.00
2017-11-09T23:38:54.484Z,7.00
2017-11-09T23:41:21.656Z,6.90
2017-11-09T23:43:48.074Z,7.00
2017-11-09T23:46:15.386Z,6.90
2017-11-09T23:48:42.558Z,6.90
2017-11-09T23:51:09.686Z,6.90
2017-11-09T23:53:36.869Z,6.90
2017-11-09T23:56:03.305Z,6.80
2017-11-09T23:58:29.757Z,6.90
